x

Sentry Shoal (46131) Wave Buoy

10:00pm - Sat 25th Apr 2015 All times are PDT. -7 hours from GMT.

  • Sig Wave height 0.7ft
  • Peak Period 2s
  • Wind
    13mph, 16mph gusts
  • Sea Temp 52°f
  • Air Temp 52°f
  • Sea Pressure 1016.5mb
  • Sentry Shoal
  • Sentry Shoal

More Historic Weather Station data

Upgrade to MSW Pro to gain access to the past 30 days of data for over 8000 Wavebouys and Weather Stations around the globe.

Join Pro

Comparision Forecast

View Surf forecast
   
Sat 04/25 10:00pm 0.7ft 2s 13 16 mph 1016.5mb 52f 52f
9:00pm 0.3ft 2s 9 11 mph 1016.4mb 52f 52f
8:00pm  -  3s 9 11 mph 1016mb 53f 52f
7:00pm  -  2s 7
mph
1015.9mb 53f 53f
6:00pm  -  3s 9
mph
1015.7mb 54f 52f
5:00pm  -  2s 9
mph
1015.7mb 56f 51f
4:00pm  -  3s 4
mph
1015.8mb 56f 51f
3:00pm  -  2s 2 4 mph 1015.9mb 57f 51f
2:00pm 0.3ft 3s 2 4 mph 1015.9mb 54f 50f
1:00pm  -  2s  -  2 mph 1015.7mb 55f 49f
12:00pm 0.3ft 6s 2 4 mph 1015.7mb 53f 48f
11:00am 0.3ft 2s 2
mph
1015.7mb 52f 47f
10:00am 0.3ft 2s 7 9 mph 1015.2mb 51f 46f
9:00am 0.7ft 2s 9 11 mph 1014.9mb 51f 45f
8:00am 0.7ft 2s 9 11 mph 1014.4mb 51f 45f
7:00am 0.3ft 2s 11
mph
1013.8mb 51f 45f
6:00am 0.3ft 2s 9 11 mph 1013.2mb 51f 44f
5:00am 0.3ft 2s 9 11 mph 1013mb 51f 45f
4:00am 0.3ft 2s 9 11 mph 1012.8mb 51f 46f
3:00am 0.3ft 2s 7 11 mph 1012.4mb 51f 46f
2:00am 0.3ft 2s 9
mph
1012mb 51f 46f
1:00am 0.3ft 2s 9 11 mph 1011.6mb 51f 46f
12:00am 0.3ft 2s 7 9 mph 1011.3mb 51f 47f
Fri 04/24 11:00pm 0.3ft 7s 4 7 mph 1011.3mb 52f 48f
10:00pm 0.3ft 7s 2 4 mph 1011mb 52f 48f
9:00pm 0.3ft 8s  -  2 mph 1010.8mb 52f 47f
8:00pm 0.3ft 4s  -  2 mph 1010.4mb 53f 47f
7:00pm 0.3ft 4s 2 4 mph 1010.1mb 53f 49f
6:00pm 0.3ft 2s 2 4 mph 1009.9mb 53f 48f
5:00pm 0.3ft 2s  -  2 mph 1009.7mb 53f 51f
4:00pm 0.3ft 3s 2 4 mph 1009.5mb 54f 47f
3:00pm 0.3ft 3s  -  4 mph 1009.3mb 54f 47f
2:00pm 0.3ft 3s 4
mph
1009mb 53f 46f
1:00pm 0.3ft 3s 2 4 mph 1008.7mb 52f 45f
12:00pm 0.3ft 4s 4
mph
1008.6mb 51f 44f
11:00am 0.3ft 4s 7 9 mph 1008.3mb 51f 43f
10:00am 0.3ft 2s 4 7 mph 1007.7mb 50f 43f
9:00am 0.3ft 2s 4 7 mph 1007.4mb 50f 42f
8:00am 0.3ft 2s 7 9 mph 1007.1mb 50f 41f
7:00am 0.3ft 2s 11 13 mph 1006.6mb 50f 42f
6:00am 0.7ft 2s 7 9 mph 1006.2mb 50f 42f
5:00am 0.7ft 3s 9 13 mph 1005.9mb 50f 43f
4:00am 0.7ft 3s 13 20 mph 1005.7mb 50f 44f
3:00am 0.7ft 3s 9 11 mph 1005.5mb 50f 45f
2:00am 1ft 3s 9 11 mph 1005.5mb 50f 45f
1:00am 1ft 3s 16 20 mph 1005.4mb 50f 44f
12:00am 1.3ft 3s 13 16 mph 1005.4mb 50f 46f
Thu 04/23 11:00pm 1.3ft 4s 13 16 mph 1005.4mb 50f 46f
10:00pm 2ft 3s 11 20 mph 1005.1mb 50f 47f
9:00pm 1.6ft 4s 20 25 mph 1004.9mb 50f 45f
8:00pm 3ft 4s 13 18 mph 1004.3mb 50f 49f
7:00pm 3.5ft 5s 18 22 mph 1004.3mb 50f 49f
6:00pm 4.5ft 5s 16 18 mph 1004.7mb 50f 49f
5:00pm 5.5ft 6s 25 29 mph 1004.5mb 50f 48f
4:00pm 6ft 5s 27 31 mph 1004.5mb 50f 48f
3:00pm 6ft 5s 27 36 mph 1005.5mb 50f 47f
2:00pm 6ft 6s 27 34 mph 1006mb 50f 47f
1:00pm 5.5ft 5s 29 34 mph 1006.5mb 50f 47f
12:00pm 5ft 5s 25 29 mph 1007.5mb 50f 46f
11:00am 5ft 5s 25 31 mph 1007.9mb 50f 46f
10:00am 3.5ft 4s 25 29 mph 1008.6mb 50f 46f
9:00am 3.5ft 4s 27 31 mph 1008.8mb 50f 47f
8:00am 3.5ft 4s 25 29 mph 1009.3mb 51f 48f
7:00am 3.5ft 4s 22 27 mph 1010mb 51f 48f
6:00am 2.5ft 4s 20 25 mph 1010.6mb 51f 48f
5:00am 1ft 2s 18 22 mph 1011.2mb 51f 49f
4:00am 1ft 3s 9 11 mph 1012.2mb 51f 48f
3:00am 1.3ft 3s 18 20 mph 1012.4mb 51f 49f
2:00am 1ft 2s 18 22 mph 1012.9mb 51f 49f
1:00am 1ft 3s 11 18 mph 1013.9mb 51f 50f
12:00am 1.3ft 4s 9 13 mph 1014.2mb 51f 50f
Wed 04/22 11:00pm 2ft 4s 13 16 mph 1014.5mb 51f 51f
10:00pm 2.5ft 4s 11 16 mph 1015.4mb 51f 51f
9:00pm 1.6ft 4s 18 22 mph 1015.2mb 51f 51f
8:00pm 0.3ft 2s 16 18 mph 1015.8mb 51f 52f
7:00pm 0.3ft 2s 7 9 mph 1016.8mb 52f 51f
6:00pm  -  3s 7 9 mph 1017.7mb 52f 52f
5:00pm 0.3ft 2s 7 9 mph 1018.6mb 51f 51f
4:00pm 0.3ft 2s 7 9 mph 1019.4mb 52f 51f
3:00pm 0.3ft 2s 9 11 mph 1020mb 52f 51f
2:00pm 0.3ft 2s 9
mph
1020.5mb 52f 51f
1:00pm 0.3ft 2s 7 11 mph 1020.5mb 53f 50f
12:00pm 0.7ft 2s  -  mph 1020.9mb 51f 51f
11:00am 0.7ft 2s 11 13 mph 1020.5mb 51f 49f
10:00am 1ft 3s 13 16 mph 1020.5mb 51f 49f
9:00am 1ft 2s 16 20 mph 1020.3mb 51f 48f
8:00am 1.3ft 3s 16 18 mph 1020mb 51f 47f
7:00am 1.3ft 3s 18 22 mph 1019.3mb 51f 47f